• Join FlightAware (Why Join?)
  • Login
  • US Flag 
12:15AM EST


 

Airport Tracker/Info


-or-


 

Live Flight TrackerFlight Track Log ✈ JBU33 ✈ 20-Jun-2013 ✈ KBTV - KJFK

Flight Track Log - Related Links

Times and Time Zones

All times are in EDT time to prevent confusion due to time zone crossing. See the JBU33 flight status page for this flight to view local times or setup timezone preferences in your user account.

Time Position Orientation Groundspeed Altitude Reporting Facility
EDT Latitude Longitude Course Direction KTS MPH feet Rate Location/Type
01:12PM 44.3069 -73.1653 196° South 259 298 8,000  Level Boston Center
01:13PM 44.1380 -73.2733 195° South  Level FlightAware Approximate
01:13PM 44.2297 -73.1992 197° South 271 312 10,900  Level Boston Center
01:14PM 44.0552 -73.3038 194° South  Level FlightAware Approximate
01:14PM 44.1419 -73.2356 197° South 308 354 13,100  Level Boston Center
01:15PM 43.9720 -73.3316 194° South  Level FlightAware Approximate
01:15PM 44.0478 -73.2747 197° South 343 395 15,800  Level Boston Center
01:16PM 43.8891 -73.3611 196° South  Level FlightAware Approximate
01:16PM 43.9581 -73.3139 197° South 371 427 18,100  Level Boston Center
01:17PM 43.8069 -73.3941 196° South  Level FlightAware Approximate
01:17PM 43.8556 -73.3500 194° South 379 436 20,200  Level Boston Center
01:18PM 43.7247 -73.4270 196° South  Level FlightAware Approximate
01:18PM 43.7428 -73.3769 190° South 402 463 22,300  Level Boston Center
01:19PM 43.6300 -73.4011 189° South 412 474 24,400 1,620 Climbing Boston Center
01:20PM 43.5092 -73.4250 188° South 424 488 25,600 780 Climbing Boston Center
01:21PM 43.3858 -73.4542 190° South 440 506 26,000 180 Climbing Boston Center
01:22PM 43.2606 -73.4808 189° South 450 518 26,000  Level Boston Center
01:23PM 43.1372 -73.5069 189° South 455 524 26,000  Level Boston Center
01:24PM 43.0350 -73.5308 190° South 461 531 26,000  Level Boston Center
01:25PM 42.8867 -73.5650 190° South 461 531 26,000  Level Boston Center
01:26PM 42.7633 -73.5911 189° South 461 531 26,000  Level Boston Center
01:27PM 42.6403 -73.6228 191° South 456 525 26,000  Level Boston Center
01:28PM 42.5150 -73.6483 189° South 456 525 26,000  Level Boston Center
01:29PM 42.3936 -73.6742 189° South 456 525 26,000  Level Boston Center
01:30PM 42.2706 -73.6914 186° South 449 517 26,000  Level Boston Center
01:31PM 42.1472 -73.7253 192° South 449 517 26,000  Level Boston Center
01:32PM 42.0239 -73.7508 189° South 449 517 26,000  Level Boston Center
01:33PM 41.9028 -73.7761 189° South 449 517 26,000  Level Boston Center
01:34PM 41.7878 -73.8072 191° South 443 510 26,000 -120 Level Boston Center
01:35PM 41.6806 -73.8744 205° Southwest 425 489 25,800 -1,620 Descending Boston Center
01:37PM 41.4522 -74.0206 206° Southwest 418 481 21,100 -1,920 Descending New York Center
01:38PM 41.3508 -74.0683 199° South 400 460 20,000 -540 Descending New York Center
01:39PM 41.2422 -74.0850 187° South 395 455 20,000  Level New York Center
01:40PM 41.1439 -74.0994 186° South 385 443 20,000  Level New York Center
01:41PM 41.0497 -74.1167 188° South 359 413 20,000  Level New York Center
01:42PM 41.0000 -74.1167 180° South 346 398 20,000 -600 Level New York TRACON
01:43PM 40.9000 -74.0833 166° South 370 426 19,100 -540 Descending New York TRACON
01:44PM 40.8333 -73.9833 131° Southeast 370 426 19,000 -600 Descending New York TRACON
01:45PM 40.8000 -73.8667 111° Southeast 367 422 17,900 -1,320 Descending New York TRACON
01:46PM 40.7500 -73.7333 116° Southeast 382 440 16,400 -1,560 Descending New York TRACON
01:47PM 40.6667 -73.6833 156° South 370 426 14,800 -1,740 Descending New York TRACON
01:48PM 40.5833 -73.6500 163° South 335 386 13,000 -1,980 Descending New York TRACON
01:49PM 40.5000 -73.6500 180° South 302 348 10,900 -2,100 Descending New York TRACON
01:50PM 40.4167 -73.6500 180° South 290 334 8,900 -2,040 Descending New York TRACON
01:51PM 40.3333 -73.6667 189° South 276 318 6,900 -1,920 Descending New York TRACON
01:52PM 40.3167 -73.7667 258° West 271 312 5,100 -1,680 Descending New York TRACON
01:53PM 40.3500 -73.8500 298° West 260 299 3,600 -1,080 Descending New York TRACON
01:54PM 40.3833 -73.9333 298° West 259 298 3,000 -300 Descending New York TRACON
01:55PM 40.4500 -73.9667 339° North 223 257 3,000  Level New York TRACON